Time;durP1;ratioP1;P1;durP2;ratioP2;P2;SDS_P1;SDS_P2;PMS_P1;PMS_P2;Temp;Humidity;BMP_temperature;BMP_pressure;BME280_temperature;BME280_humidity;BME280_pressure;Samples;Min_cycle;Max_cycle;Signal;HPM_P1;HPM_P2
2021/11/21 00:00:48;;;;;;;43.70;22.63;;;6.90;99.90;;;;;;4994295;28;20045;-76
2021/11/21 00:03:14;;;;;;;39.42;20.90;;;6.90;99.90;;;;;;4993504;28;20023;-75
2021/11/21 00:05:44;;;;;;;45.28;22.13;;;6.90;99.90;;;;;;4994370;28;20056;-76
2021/11/21 00:08:11;;;;;;;37.47;21.80;;;6.90;99.90;;;;;;4994763;28;20029;-75
2021/11/21 00:10:38;;;;;;;42.58;21.95;;;6.90;99.90;;;;;;4994288;28;20105;-75
2021/11/21 00:13:04;;;;;;;44.40;23.42;;;6.90;99.90;;;;;;4994269;28;20032;-75
2021/11/21 00:15:30;;;;;;;42.08;23.00;;;6.90;99.90;;;;;;4992922;28;20026;-75
2021/11/21 00:17:56;;;;;;;37.42;21.52;;;6.90;99.90;;;;;;4994175;28;20022;-75
2021/11/21 00:20:22;;;;;;;36.08;20.80;;;6.90;99.90;;;;;;4992646;28;20027;-75
2021/11/21 00:22:48;;;;;;;41.55;21.42;;;6.90;99.90;;;;;;4993654;28;20025;-75
2021/11/21 00:25:14;;;;;;;39.15;19.75;;;6.90;99.90;;;;;;4994059;28;20464;-75
2021/11/21 00:27:39;;;;;;;36.95;20.27;;;6.90;99.90;;;;;;4992778;28;20026;-76
2021/11/21 00:30:06;;;;;;;39.55;21.25;;;6.90;99.90;;;;;;4993985;28;20072;-76
2021/11/21 00:32:32;;;;;;;37.13;20.98;;;6.90;99.90;;;;;;4994012;28;20011;-75
2021/11/21 00:34:58;;;;;;;34.78;19.50;;;6.90;99.90;;;;;;4993875;28;20038;-75
2021/11/21 00:37:25;;;;;;;36.25;19.45;;;6.90;99.90;;;;;;4992656;28;20022;-76
2021/11/21 00:39:51;;;;;;;35.47;20.17;;;6.90;99.90;;;;;;4992422;28;20030;-75
2021/11/21 00:42:17;;;;;;;35.28;19.50;;;6.80;99.90;;;;;;4993882;28;20032;-76
2021/11/21 00:44:44;;;;;;;37.22;22.05;;;6.80;99.90;;;;;;4993727;28;20050;-75
2021/11/21 00:47:10;;;;;;;38.38;20.90;;;6.80;99.90;;;;;;4993833;28;20022;-75
2021/11/21 00:49:37;;;;;;;35.78;20.17;;;6.80;99.90;;;;;;4993686;28;20030;-75
2021/11/21 00:52:03;;;;;;;34.28;20.70;;;6.80;99.90;;;;;;4993687;28;20030;-75
2021/11/21 00:57:13;;;;;;;36.25;18.90;;;6.70;99.90;;;;;;4993970;28;20057;-75
2021/11/21 00:59:39;;;;;;;35.22;19.30;;;6.70;99.90;;;;;;4993530;28;20050;-75
2021/11/21 01:02:09;;;;;;;37.10;20.08;;;6.60;99.90;;;;;;4993487;28;20074;-76
2021/11/21 01:04:36;;;;;;;35.78;20.75;;;6.60;99.90;;;;;;4993501;28;20023;-76
2021/11/21 01:07:01;;;;;;;35.78;19.75;;;6.60;99.90;;;;;;4993532;28;20089;-76
2021/11/21 01:09:27;;;;;;;39.53;20.77;;;6.50;99.90;;;;;;4993429;28;20026;-75
2021/11/21 01:11:54;;;;;;;42.35;22.58;;;6.50;99.90;;;;;;4993197;28;20022;-75
2021/11/21 01:14:20;;;;;;;43.95;22.40;;;6.40;99.90;;;;;;4993414;28;20399;-75
2021/11/21 01:16:45;;;;;;;35.38;19.65;;;6.40;99.90;;;;;;4993369;28;20022;-75
2021/11/21 01:19:11;;;;;;;40.40;20.13;;;6.40;99.90;;;;;;4975913;28;20041;-75
2021/11/21 01:21:37;;;;;;;39.92;21.00;;;6.40;99.90;;;;;;4993279;28;20038;-75
2021/11/21 01:24:02;;;;;;;39.83;21.38;;;6.40;99.90;;;;;;4993285;28;20030;-75
2021/11/21 01:26:28;;;;;;;42.67;21.70;;;6.40;99.90;;;;;;4993439;28;20521;-76
2021/11/21 01:28:54;;;;;;;39.63;21.45;;;6.40;99.90;;;;;;4975847;28;20089;-75
2021/11/21 01:31:20;;;;;;;40.83;20.00;;;6.40;99.90;;;;;;4975716;28;20033;-75
2021/11/21 01:33:46;;;;;;;36.60;20.65;;;6.40;99.90;;;;;;4993272;28;20026;-76
2021/11/21 01:36:12;;;;;;;40.65;21.23;;;6.50;99.90;;;;;;4979679;28;20045;-75
2021/11/21 01:38:37;;;;;;;40.33;22.48;;;6.50;99.90;;;;;;4979650;28;20050;-75
2021/11/21 01:41:04;;;;;;;35.97;20.30;;;6.50;99.90;;;;;;4979419;28;20038;-75
2021/11/21 01:43:29;;;;;;;36.05;20.13;;;6.50;99.90;;;;;;4997120;28;20034;-75
2021/11/21 01:45:55;;;;;;;41.63;21.25;;;6.50;99.90;;;;;;4979537;28;20027;-75
2021/11/21 01:48:21;;;;;;;33.55;19.58;;;6.50;99.90;;;;;;4996907;28;20053;-75
2021/11/21 01:50:47;;;;;;;38.20;20.30;;;6.50;99.90;;;;;;4996869;28;20105;-75
2021/11/21 01:53:14;;;;;;;43.47;22.40;;;6.50;99.90;;;;;;4996899;28;20475;-75
2021/11/21 01:55:41;;;;;;;41.08;22.00;;;6.40;99.90;;;;;;4996548;28;20062;-75
2021/11/21 01:58:09;;;;;;;43.70;21.23;;;6.40;99.90;;;;;;4979404;28;20014;-75
2021/11/21 02:00:40;;;;;;;38.38;19.83;;;6.40;99.90;;;;;;4996536;28;20042;-76
2021/11/21 02:03:06;;;;;;;39.80;21.05;;;6.30;99.90;;;;;;4979343;28;20457;-75
2021/11/21 02:05:32;;;;;;;41.28;21.80;;;6.30;99.90;;;;;;4996694;28;20066;-75
2021/11/21 02:07:58;;;;;;;37.85;20.80;;;6.20;99.90;;;;;;4996616;28;20373;-75
2021/11/21 02:10:24;;;;;;;38.53;22.05;;;6.20;99.90;;;;;;4996603;28;20038;-75
2021/11/21 02:12:51;;;;;;;43.72;23.92;;;6.20;99.90;;;;;;4996507;28;20069;-76
2021/11/21 02:15:22;;;;;;;39.95;20.85;;;6.10;99.90;;;;;;4996208;28;20034;-75
2021/11/21 02:17:48;;;;;;;37.92;19.85;;;6.10;99.90;;;;;;4996288;28;20594;-75
2021/11/21 02:20:23;;;;;;;38.20;21.05;;;6.00;99.90;;;;;;4994110;28;20105;-75
2021/11/21 02:22:48;;;;;;;43.47;19.63;;;6.00;99.90;;;;;;4976784;28;20034;-76
2021/11/21 02:25:14;;;;;;;40.13;21.75;;;5.90;99.90;;;;;;4994155;28;20464;-75
2021/11/21 02:27:40;;;;;;;44.80;23.10;;;5.90;99.90;;;;;;4994274;28;20030;-75
2021/11/21 02:30:08;;;;;;;45.78;25.23;;;5.90;99.90;;;;;;4976109;28;20029;-75
2021/11/21 02:32:34;;;;;;;44.55;24.85;;;5.90;99.90;;;;;;4975680;28;20029;-75
2021/11/21 02:35:00;;;;;;;48.70;25.50;;;5.80;99.90;;;;;;4992785;28;20057;-75
2021/11/21 02:37:26;;;;;;;43.08;22.98;;;5.90;99.90;;;;;;4992628;28;20375;-75
2021/11/21 02:39:53;;;;;;;44.33;23.38;;;5.90;99.90;;;;;;4992909;28;20030;-75
2021/11/21 02:42:31;;;;;;;47.75;25.58;;;5.90;99.90;;;;;;4995624;28;20109;-75
2021/11/21 02:44:57;;;;;;;50.47;25.15;;;5.80;99.90;;;;;;4976804;28;20026;-76
2021/11/21 02:47:23;;;;;;;45.15;23.95;;;5.80;99.90;;;;;;4994099;28;20487;-75
2021/11/21 02:49:48;;;;;;;41.45;21.25;;;5.80;99.90;;;;;;4976444;28;20247;-76
2021/11/21 02:52:14;;;;;;;44.55;22.60;;;5.70;99.90;;;;;;4976535;28;20030;-76
2021/11/21 02:54:54;;;;;;;46.50;23.83;;;5.70;99.90;;;;;;4994808;28;20526;-76
2021/11/21 02:57:20;;;;;;;45.83;23.20;;;5.70;99.90;;;;;;4993318;28;20106;-75
2021/11/21 02:59:46;;;;;;;44.58;22.45;;;5.70;99.90;;;;;;4994268;28;20030;-75
2021/11/21 03:02:12;;;;;;;40.00;21.17;;;5.70;99.90;;;;;;4976433;28;20100;-75
2021/11/21 03:04:38;;;;;;;39.75;21.08;;;5.60;99.90;;;;;;4994705;28;20427;-76
2021/11/21 03:07:04;;;;;;;46.75;22.80;;;5.60;99.90;;;;;;4995401;28;20049;-76
2021/11/21 03:09:30;;;;;;;48.13;23.10;;;5.50;99.90;;;;;;4994248;28;20480;-75
2021/11/21 03:11:56;;;;;;;45.92;22.27;;;5.60;99.90;;;;;;4975905;28;20027;-75
2021/11/21 03:14:23;;;;;;;38.55;21.60;;;5.60;99.90;;;;;;4993332;28;20105;-76
2021/11/21 03:16:50;;;;;;;40.67;21.27;;;5.60;99.90;;;;;;4993364;28;20022;-75
2021/11/21 03:19:16;;;;;;;42.22;21.08;;;5.60;99.90;;;;;;4975739;28;20118;-75
2021/11/21 03:21:42;;;;;;;40.75;21.73;;;5.60;99.90;;;;;;4975669;28;20030;-75
2021/11/21 03:24:08;;;;;;;46.33;21.88;;;5.70;99.90;;;;;;4976283;28;20030;-75
2021/11/21 03:26:35;;;;;;;41.40;22.25;;;5.70;99.90;;;;;;4995075;28;20026;-75
2021/11/21 03:29:00;;;;;;;39.08;22.55;;;5.70;99.90;;;;;;4995142;28;20027;-75
2021/11/21 03:31:26;;;;;;;41.38;21.48;;;5.70;99.90;;;;;;4977703;28;20033;-76
2021/11/21 03:33:52;;;;;;;35.65;20.02;;;5.80;99.90;;;;;;4995122;28;20041;-75
2021/11/21 03:36:18;;;;;;;38.28;21.13;;;5.80;99.90;;;;;;4994875;28;20042;-75
2021/11/21 03:38:44;;;;;;;39.20;21.10;;;5.90;99.90;;;;;;4977435;28;20472;-75
2021/11/21 03:41:10;;;;;;;38.20;20.55;;;5.90;99.90;;;;;;4994855;28;20035;-75
2021/11/21 03:43:36;;;;;;;36.20;20.70;;;5.90;99.90;;;;;;4977374;28;20025;-75
2021/11/21 03:46:01;;;;;;;42.20;21.85;;;5.90;99.90;;;;;;4994884;28;20042;-76
2021/11/21 03:48:27;;;;;;;35.95;21.75;;;5.90;99.90;;;;;;4977254;28;20026;-77
2021/11/21 03:50:53;;;;;;;40.15;20.17;;;6.00;99.90;;;;;;4994663;28;20026;-76
2021/11/21 03:53:19;;;;;;;40.03;20.58;;;6.00;99.90;;;;;;4994820;28;20022;-76
2021/11/21 03:55:46;;;;;;;35.05;18.50;;;6.00;99.90;;;;;;4994558;28;20026;-75
2021/11/21 03:58:12;;;;;;;38.50;19.58;;;6.00;99.90;;;;;;4976349;28;20020;-75
2021/11/21 04:00:37;;;;;;;40.05;21.98;;;6.00;99.90;;;;;;4994386;28;20512;-75
2021/11/21 04:03:05;;;;;;;37.47;19.27;;;6.10;99.90;;;;;;4977039;28;20030;-76
2021/11/21 04:05:31;;;;;;;36.95;19.25;;;6.10;99.90;;;;;;4994426;28;20026;-76
2021/11/21 04:07:57;;;;;;;32.80;17.80;;;6.10;99.90;;;;;;4976962;28;20034;-75
2021/11/21 04:10:23;;;;;;;36.47;18.80;;;6.20;99.90;;;;;;4994253;28;20026;-75
2021/11/21 04:12:49;;;;;;;32.78;19.20;;;6.20;99.90;;;;;;4994316;28;20026;-75
2021/11/21 04:15:15;;;;;;;30.95;17.63;;;6.20;99.90;;;;;;4994234;28;20022;-75
2021/11/21 04:17:41;;;;;;;32.15;18.13;;;6.20;99.90;;;;;;4994321;28;20026;-75
2021/11/21 04:20:09;;;;;;;32.40;17.52;;;6.30;99.90;;;;;;4976629;28;20033;-75
2021/11/21 04:22:35;;;;;;;30.48;15.63;;;6.30;99.90;;;;;;4976702;28;20026;-75
2021/11/21 04:25:02;;;;;;;27.77;17.08;;;6.30;99.90;;;;;;4994104;28;20108;-75
2021/11/21 04:27:27;;;;;;;30.13;16.55;;;6.30;99.90;;;;;;4976555;28;20023;-75
2021/11/21 04:29:57;;;;;;;31.42;15.98;;;6.30;99.90;;;;;;4993926;28;20121;-75
2021/11/21 04:32:23;;;;;;;29.80;17.33;;;6.30;99.90;;;;;;4994130;28;20102;-75
2021/11/21 04:34:49;;;;;;;25.40;15.65;;;6.30;99.90;;;;;;4990530;28;20344;-75
2021/11/21 04:37:15;;;;;;;26.38;15.32;;;6.40;99.90;;;;;;4993481;28;20554;-76
2021/11/21 04:39:41;;;;;;;25.10;14.75;;;6.40;99.90;;;;;;4976207;28;20026;-75
2021/11/21 04:42:07;;;;;;;29.05;16.80;;;6.30;99.90;;;;;;4992988;28;20038;-75
2021/11/21 04:44:32;;;;;;;27.73;15.20;;;6.40;99.90;;;;;;4993444;28;20030;-75
2021/11/21 04:46:58;;;;;;;25.00;15.93;;;6.40;99.90;;;;;;4992165;28;20464;-75
2021/11/21 04:49:24;;;;;;;26.02;15.65;;;6.40;99.90;;;;;;4975212;28;20058;-75
2021/11/21 04:51:50;;;;;;;26.15;16.27;;;6.40;99.90;;;;;;4993726;28;20065;-75
2021/11/21 04:54:18;;;;;;;22.98;14.13;;;6.40;99.90;;;;;;4993735;28;21352;-75
2021/11/21 04:56:46;;;;;;;24.58;14.95;;;6.40;99.90;;;;;;4993609;28;20049;-76
2021/11/21 04:59:13;;;;;;;25.48;14.45;;;6.40;99.90;;;;;;4993563;28;20034;-75
2021/11/21 05:01:38;;;;;;;26.80;15.35;;;6.40;99.90;;;;;;4976056;28;20409;-76
2021/11/21 05:04:04;;;;;;;30.40;16.52;;;6.40;99.90;;;;;;4992885;28;20102;-76
2021/11/21 05:06:30;;;;;;;25.88;15.85;;;6.40;99.90;;;;;;4993576;28;20030;-76
2021/11/21 05:08:55;;;;;;;26.90;14.73;;;6.40;99.90;;;;;;4993155;28;20054;-76
2021/11/21 05:11:21;;;;;;;27.00;14.75;;;6.40;99.90;;;;;;4993690;28;20061;-76
2021/11/21 05:13:47;;;;;;;24.17;14.18;;;6.40;99.90;;;;;;4988205;28;20036;-75
2021/11/21 05:16:13;;;;;;;26.25;15.15;;;6.40;99.90;;;;;;4993426;28;20022;-75
2021/11/21 05:18:38;;;;;;;24.98;15.60;;;6.40;99.90;;;;;;4993360;28;20033;-75
2021/11/21 05:21:04;;;;;;;31.63;15.50;;;6.40;99.90;;;;;;4993021;28;20034;-76
2021/11/21 05:23:30;;;;;;;26.88;15.68;;;6.40;99.90;;;;;;4993423;28;20026;-76
2021/11/21 05:25:56;;;;;;;28.27;15.90;;;6.40;99.90;;;;;;4993262;28;20030;-76
2021/11/21 05:28:21;;;;;;;22.48;15.27;;;6.30;99.90;;;;;;4993314;28;20026;-76
2021/11/21 05:30:49;;;;;;;31.00;16.38;;;6.30;99.90;;;;;;4993252;28;20027;-76
2021/11/21 05:33:15;;;;;;;27.75;17.58;;;6.40;99.90;;;;;;4992005;28;20026;-75
2021/11/21 05:35:40;;;;;;;35.50;18.17;;;6.30;99.90;;;;;;4993443;28;20108;-75
2021/11/21 05:38:06;;;;;;;26.95;17.35;;;6.30;99.90;;;;;;4992100;28;20379;-76
2021/11/21 05:40:32;;;;;;;29.20;16.55;;;6.30;99.90;;;;;;4993085;28;20121;-76
2021/11/21 05:42:58;;;;;;;29.58;17.25;;;6.30;99.90;;;;;;4993243;28;20021;-76
2021/11/21 05:45:23;;;;;;;27.75;16.98;;;6.30;99.90;;;;;;4993185;28;20506;-76
2021/11/21 05:47:49;;;;;;;31.05;17.73;;;6.30;99.90;;;;;;4991900;28;20019;-76
2021/11/21 05:50:16;;;;;;;30.70;16.88;;;6.30;99.90;;;;;;4993005;28;20038;-75
2021/11/21 05:52:46;;;;;;;32.83;18.25;;;6.30;99.90;;;;;;4993142;28;20021;-76
2021/11/21 05:55:13;;;;;;;30.33;17.15;;;6.30;99.90;;;;;;4975503;28;20380;-75
2021/11/21 05:57:39;;;;;;;37.25;21.40;;;6.30;99.90;;;;;;4993161;28;20027;-75
2021/11/21 06:00:08;;;;;;;29.80;17.35;;;6.30;99.90;;;;;;4975393;28;20030;-75
2021/11/21 06:02:33;;;;;;;32.83;19.13;;;6.20;99.90;;;;;;4975527;28;20019;-75
2021/11/21 06:04:59;;;;;;;29.38;18.13;;;6.20;99.90;;;;;;4992902;28;20077;-75
2021/11/21 06:07:25;;;;;;;28.90;17.45;;;6.20;99.90;;;;;;4993012;28;20018;-76
2021/11/21 06:09:50;;;;;;;27.35;17.23;;;6.20;99.90;;;;;;4975562;28;20400;-75
2021/11/21 06:12:16;;;;;;;30.50;17.52;;;6.20;99.90;;;;;;4975627;28;20030;-75
2021/11/21 06:14:42;;;;;;;29.42;18.40;;;6.20;99.90;;;;;;4975440;28;20026;-76
2021/11/21 06:17:08;;;;;;;34.80;19.50;;;6.20;99.90;;;;;;4993032;28;20026;-76
2021/11/21 06:19:35;;;;;;;34.67;18.77;;;6.20;99.90;;;;;;4975281;28;20505;-75
2021/11/21 06:22:02;;;;;;;29.75;18.27;;;6.20;99.90;;;;;;4978185;28;20121;-76
2021/11/21 06:24:29;;;;;;;29.80;18.48;;;6.20;99.90;;;;;;4996360;28;20049;-75
2021/11/21 06:26:55;;;;;;;30.50;17.98;;;6.20;99.90;;;;;;4996335;28;20022;-75
2021/11/21 06:29:21;;;;;;;31.35;18.08;;;6.20;99.90;;;;;;4996211;28;20053;-75
2021/11/21 06:31:47;;;;;;;27.33;17.88;;;6.20;99.90;;;;;;4978726;28;20463;-75
2021/11/21 06:34:14;;;;;;;36.50;18.13;;;6.20;99.90;;;;;;4995655;28;20058;-75
2021/11/21 06:36:41;;;;;;;25.35;17.63;;;6.20;99.90;;;;;;4996133;28;20054;-75
2021/11/21 06:39:08;;;;;;;30.30;18.10;;;6.20;99.90;;;;;;4978518;28;20076;-75
2021/11/21 06:41:35;;;;;;;27.90;18.35;;;6.20;99.90;;;;;;4996135;28;20038;-76
2021/11/21 06:44:02;;;;;;;27.38;17.52;;;6.20;99.90;;;;;;4996016;28;20115;-75
2021/11/21 06:46:27;;;;;;;32.13;19.02;;;6.30;99.90;;;;;;4996023;28;20026;-75
2021/11/21 06:48:53;;;;;;;33.25;19.08;;;6.30;99.90;;;;;;4995805;28;20034;-75
2021/11/21 06:51:19;;;;;;;28.23;17.80;;;6.30;99.90;;;;;;4978418;28;20543;-76
2021/11/21 06:53:47;;;;;;;31.90;18.48;;;6.30;99.90;;;;;;4995555;28;20030;-75
2021/11/21 06:56:13;;;;;;;34.53;20.02;;;6.30;99.90;;;;;;4978379;28;20483;-75
2021/11/21 06:58:39;;;;;;;30.58;18.30;;;6.30;99.90;;;;;;4978308;28;20045;-75
2021/11/21 07:01:05;;;;;;;29.15;18.55;;;6.40;99.90;;;;;;4978179;28;20057;-76
2021/11/21 07:03:30;;;;;;;31.20;18.70;;;6.30;99.90;;;;;;4995659;28;20049;-76
2021/11/21 07:05:56;;;;;;;28.88;18.08;;;6.40;99.90;;;;;;4995535;28;20037;-75
2021/11/21 07:08:22;;;;;;;25.33;17.30;;;6.40;99.90;;;;;;4995257;28;20045;-76
2021/11/21 07:10:47;;;;;;;26.42;17.80;;;6.40;99.90;;;;;;4995385;28;20034;-75
2021/11/21 07:13:13;;;;;;;27.23;16.73;;;6.40;99.90;;;;;;4995545;28;20027;-75
2021/11/21 07:15:38;;;;;;;28.05;18.15;;;6.40;99.90;;;;;;4977967;28;20030;-75
2021/11/21 07:18:04;;;;;;;26.95;16.10;;;6.40;99.90;;;;;;4977985;28;20393;-76
2021/11/21 07:20:30;;;;;;;27.88;16.17;;;6.40;99.90;;;;;;4987327;28;20448;-76
2021/11/21 07:22:56;;;;;;;24.58;16.08;;;6.40;99.90;;;;;;4975900;28;20492;-76
2021/11/21 07:25:23;;;;;;;22.08;15.45;;;6.40;99.90;;;;;;4980035;28;20034;-76
2021/11/21 07:27:50;;;;;;;22.27;15.48;;;6.40;99.90;;;;;;4998767;28;20023;-77
2021/11/21 07:30:18;;;;;;;26.27;16.35;;;6.50;99.90;;;;;;4977092;28;20033;-76
2021/11/21 07:32:45;;;;;;;26.17;16.42;;;6.60;99.90;;;;;;4992229;28;20018;-76
2021/11/21 07:35:12;;;;;;;24.05;15.38;;;6.60;99.90;;;;;;4994485;28;20523;-76
2021/11/21 07:37:37;;;;;;;23.17;15.55;;;6.60;99.90;;;;;;4995014;28;20061;-76
2021/11/21 07:40:04;;;;;;;21.77;14.52;;;6.50;99.90;;;;;;4977433;28;20034;-76
2021/11/21 07:42:30;;;;;;;21.30;14.70;;;6.50;99.90;;;;;;4994922;28;20037;-76
2021/11/21 07:44:55;;;;;;;22.02;15.88;;;6.60;99.90;;;;;;4994774;28;20022;-76
2021/11/21 07:47:21;;;;;;;21.52;14.75;;;6.50;99.90;;;;;;4994893;28;20034;-76
2021/11/21 07:49:47;;;;;;;22.10;14.07;;;6.70;99.90;;;;;;4993922;28;20464;-75
2021/11/21 07:52:13;;;;;;;23.50;16.23;;;6.80;99.90;;;;;;4976531;28;20034;-76
2021/11/21 07:54:40;;;;;;;20.85;14.45;;;6.90;99.90;;;;;;4994049;28;20022;-75
2021/11/21 07:57:06;;;;;;;19.52;13.15;;;6.90;99.90;;;;;;4994186;28;20472;-76
2021/11/21 07:59:32;;;;;;;20.33;13.30;;;6.90;99.90;;;;;;4994173;28;20022;-75
2021/11/21 08:01:57;;;;;;;19.98;13.43;;;6.90;99.90;;;;;;4994109;28;20058;-76
2021/11/21 08:04:23;;;;;;;18.02;12.73;;;6.90;99.90;;;;;;4993637;28;20109;-75
2021/11/21 08:06:48;;;;;;;20.23;13.88;;;7.00;99.90;;;;;;4994302;28;20053;-76
2021/11/21 08:09:14;;;;;;;20.08;12.48;;;7.00;99.90;;;;;;4994079;28;20542;-75
2021/11/21 08:11:40;;;;;;;17.60;12.88;;;7.10;99.90;;;;;;4976482;28;20038;-76
2021/11/21 08:14:06;;;;;;;18.95;12.77;;;7.20;99.90;;;;;;4993515;28;20087;-76
2021/11/21 08:16:32;;;;;;;20.42;13.25;;;7.20;99.90;;;;;;4993694;28;20062;-76
2021/11/21 08:18:57;;;;;;;21.33;13.95;;;7.20;99.90;;;;;;4976152;28;20399;-76
2021/11/21 08:21:23;;;;;;;20.77;13.45;;;7.30;99.90;;;;;;4993776;28;20487;-76
2021/11/21 08:23:48;;;;;;;19.52;12.88;;;7.40;99.90;;;;;;4994136;28;20023;-76
2021/11/21 08:26:14;;;;;;;21.70;12.82;;;7.40;99.90;;;;;;4976643;28;20022;-76
2021/11/21 08:28:40;;;;;;;22.10;13.60;;;7.40;99.90;;;;;;4976349;28;20069;-76
2021/11/21 08:31:07;;;;;;;20.05;14.27;;;7.50;99.90;;;;;;4976134;28;20464;-75
2021/11/21 08:33:33;;;;;;;19.88;12.70;;;7.60;99.90;;;;;;4975407;28;20034;-76
2021/11/21 08:35:59;;;;;;;19.88;13.85;;;7.60;99.90;;;;;;4988058;28;20038;-76
2021/11/21 08:38:25;;;;;;;19.50;12.88;;;7.60;99.90;;;;;;4988203;28;20041;-76
2021/11/21 08:40:50;;;;;;;17.65;12.20;;;7.60;99.90;;;;;;4988617;28;20045;-76
2021/11/21 08:43:16;;;;;;;17.90;11.55;;;7.70;99.90;;;;;;4989557;28;20031;-76
2021/11/21 08:45:42;;;;;;;17.55;12.07;;;7.70;99.90;;;;;;4972400;28;20029;-76
2021/11/21 08:48:07;;;;;;;19.90;13.15;;;7.70;99.90;;;;;;4989327;28;20026;-75
2021/11/21 08:50:33;;;;;;;21.05;13.27;;;7.80;99.90;;;;;;4989021;28;20018;-76
2021/11/21 08:52:59;;;;;;;16.05;11.77;;;7.70;99.90;;;;;;4989776;28;20380;-75
2021/11/21 08:55:26;;;;;;;19.17;12.57;;;7.70;99.90;;;;;;4989550;28;20443;-75
2021/11/21 08:57:52;;;;;;;16.80;10.73;;;7.80;99.90;;;;;;4989339;28;20560;-75
2021/11/21 09:00:18;;;;;;;17.55;11.02;;;7.80;99.90;;;;;;4988236;28;20026;-76
2021/11/21 09:02:47;;;;;;;16.20;10.60;;;7.80;99.90;;;;;;4988491;28;20070;-76
2021/11/21 09:05:13;;;;;;;17.85;10.55;;;7.90;99.90;;;;;;4977925;28;20015;-75
2021/11/21 09:07:41;;;;;;;18.15;12.52;;;8.10;99.90;;;;;;4978266;28;20018;-76
2021/11/21 09:10:10;;;;;;;20.05;12.25;;;8.10;99.90;;;;;;4988651;28;20023;-75
2021/11/21 09:12:36;;;;;;;21.30;13.80;;;8.20;99.90;;;;;;4989030;28;20034;-76
2021/11/21 09:15:02;;;;;;;24.98;15.52;;;8.30;99.90;;;;;;4988584;28;20023;-75
2021/11/21 09:17:28;;;;;;;20.92;14.15;;;8.40;99.90;;;;;;4987453;28;20022;-76
2021/11/21 09:19:54;;;;;;;20.02;14.10;;;8.50;99.90;;;;;;4975720;28;20073;-76
2021/11/21 09:22:19;;;;;;;24.20;14.57;;;8.70;99.90;;;;;;4988272;28;20038;-76
2021/11/21 09:24:45;;;;;;;22.95;13.82;;;8.80;99.90;;;;;;4988684;28;20022;-76
2021/11/21 09:27:16;;;;;;;28.17;18.60;;;8.90;99.90;;;;;;4977159;28;20049;-76
2021/11/21 09:29:43;;;;;;;35.85;20.55;;;9.00;99.90;;;;;;4988430;28;20100;-76
2021/11/21 09:32:11;;;;;;;29.88;20.27;;;8.90;99.90;;;;;;4989282;28;20036;-76
2021/11/21 09:34:38;;;;;;;34.53;20.02;;;8.80;99.90;;;;;;4988699;28;20027;-75
2021/11/21 09:37:07;;;;;;;28.52;18.10;;;8.80;99.90;;;;;;4974782;28;20069;-76
2021/11/21 09:39:34;;;;;;;26.90;16.33;;;8.80;99.90;;;;;;4986295;28;20023;-77
2021/11/21 09:42:00;;;;;;;30.10;16.75;;;8.70;99.90;;;;;;4987208;28;20065;-75
2021/11/21 09:44:26;;;;;;;29.10;18.38;;;8.60;99.90;;;;;;4981434;28;20456;-76
2021/11/21 09:46:52;;;;;;;25.50;15.25;;;8.50;99.90;;;;;;4976899;28;20044;-76
2021/11/21 09:49:19;;;;;;;23.27;14.52;;;8.40;99.90;;;;;;4988287;28;20387;-76
2021/11/21 09:51:45;;;;;;;30.02;17.58;;;8.40;99.90;;;;;;4986426;28;20073;-76
2021/11/21 09:54:12;;;;;;;156.18;75.25;;;8.30;99.90;;;;;;4978895;28;20034;-76
2021/11/21 09:56:38;;;;;;;380.98;181.43;;;8.30;99.90;;;;;;4989940;28;20109;-75
2021/11/21 09:59:04;;;;;;;27.23;15.45;;;8.30;99.90;;;;;;4980258;28;20023;-76
2021/11/21 10:01:39;;;;;;;32.33;16.17;;;8.30;99.90;;;;;;4991262;28;20038;-76
2021/11/21 10:04:06;;;;;;;34.10;16.15;;;8.50;99.90;;;;;;4989171;28;20018;-76
2021/11/21 10:06:45;;;;;;;35.55;17.73;;;8.50;99.90;;;;;;4990415;28;20029;-76
2021/11/21 10:09:12;;;;;;;30.70;17.15;;;8.60;99.90;;;;;;4991366;28;20474;-76
2021/11/21 10:11:56;;;;;;;26.20;14.13;;;8.70;99.90;;;;;;4977646;28;20097;-76
2021/11/21 10:14:22;;;;;;;30.92;16.77;;;8.80;99.90;;;;;;4988131;28;20029;-76
2021/11/21 10:16:48;;;;;;;28.13;14.65;;;8.90;99.90;;;;;;4981457;28;20014;-76
2021/11/21 10:19:14;;;;;;;24.08;13.93;;;9.00;99.90;;;;;;4991966;28;20034;-76
2021/11/21 10:21:45;;;;;;;41.95;19.23;;;9.10;99.90;;;;;;4990037;28;20038;-76
2021/11/21 10:24:21;;;;;;;57.35;25.63;;;9.10;99.90;;;;;;4989151;28;20030;-76
2021/11/21 10:27:00;;;;;;;52.08;22.23;;;9.10;99.90;;;;;;4989472;28;20014;-76
2021/11/21 10:29:34;;;;;;;47.80;20.05;;;9.00;99.90;;;;;;4987479;28;20046;-76
2021/11/21 10:32:02;;;;;;;24.63;14.07;;;9.00;99.90;;;;;;4988903;28;20081;-77
2021/11/21 10:34:28;;;;;;;21.88;13.20;;;8.90;99.90;;;;;;4985429;28;20044;-76
2021/11/21 10:36:55;;;;;;;29.20;13.13;;;8.90;99.90;;;;;;4989526;28;20072;-76
2021/11/21 10:39:27;;;;;;;20.30;11.68;;;8.80;99.90;;;;;;4989071;28;20098;-76
2021/11/21 10:41:56;;;;;;;20.58;11.23;;;8.80;99.90;;;;;;4988270;28;20153;-76
2021/11/21 10:44:22;;;;;;;18.35;10.90;;;8.80;99.90;;;;;;4987379;28;20089;-76
2021/11/21 10:46:53;;;;;;;22.70;13.38;;;8.80;99.90;;;;;;4987766;28;20032;-76
2021/11/21 10:49:33;;;;;;;23.23;12.38;;;8.80;99.90;;;;;;4986419;28;20357;-76
2021/11/21 10:52:18;;;;;;;27.65;14.18;;;8.90;99.90;;;;;;4985122;28;20015;-76
2021/11/21 10:54:46;;;;;;;23.77;13.27;;;9.00;99.90;;;;;;4979286;28;20014;-76
2021/11/21 10:57:26;;;;;;;23.50;12.60;;;9.20;99.90;;;;;;4988741;28;20022;-76
2021/11/21 10:59:58;;;;;;;24.73;13.20;;;9.30;99.90;;;;;;4963297;28;20033;-77
2021/11/21 11:02:31;;;;;;;;;;;9.50;99.90;;;;;;4985626;28;20034;-76
2021/11/21 11:05:00;;;;;;;20.63;11.95;;;9.50;99.90;;;;;;4985536;28;19928;-76
2021/11/21 11:07:27;;;;;;;23.42;14.38;;;9.60;99.90;;;;;;4969734;28;20396;-76
2021/11/21 11:09:54;;;;;;;20.55;12.57;;;9.50;99.90;;;;;;4986326;28;20097;-76
2021/11/21 11:12:22;;;;;;;24.58;12.77;;;9.50;99.90;;;;;;4977721;28;20076;-77
2021/11/21 11:14:48;;;;;;;19.13;11.98;;;9.50;99.90;;;;;;4994190;28;20430;-76
2021/11/21 11:17:14;;;;;;;24.65;13.88;;;9.50;99.90;;;;;;4976037;28;20026;-76
2021/11/21 11:19:40;;;;;;;20.17;11.70;;;9.50;99.90;;;;;;4978914;28;20491;-76
2021/11/21 11:22:06;;;;;;;34.90;16.27;;;9.60;99.90;;;;;;4988886;28;20161;-76
2021/11/21 11:24:39;;;;;;;23.02;12.98;;;9.70;99.90;;;;;;4989582;28;20491;-76
2021/11/21 11:27:27;;;;;;;23.48;13.63;;;9.60;99.90;;;;;;4977309;28;20180;-76
2021/11/21 11:29:54;;;;;;;25.20;13.27;;;9.50;99.90;;;;;;4983320;28;20050;-76
2021/11/21 11:32:34;;;;;;;25.83;14.60;;;9.30;99.90;;;;;;4981251;28;20077;-76
2021/11/21 11:35:00;;;;;;;26.02;14.52;;;9.10;99.90;;;;;;4989609;28;20042;-76
2021/11/21 11:37:45;;;;;;;29.02;16.20;;;9.00;99.90;;;;;;4977305;28;20026;-76
2021/11/21 11:40:26;;;;;;;27.77;15.77;;;9.00;99.90;;;;;;4977835;28;20478;-77
2021/11/21 11:42:52;;;;;;;28.40;16.65;;;9.00;99.90;;;;;;4988348;28;20049;-76
2021/11/21 11:45:18;;;;;;;28.08;16.85;;;9.10;99.90;;;;;;4985953;28;20026;-76
2021/11/21 11:47:44;;;;;;;27.90;17.25;;;9.20;99.90;;;;;;4981213;28;20030;-77
2021/11/21 11:50:50;;;;;;;26.65;15.15;;;9.20;99.90;;;;;;4987046;28;20049;-76
2021/11/21 11:53:33;;;;;;;25.23;15.30;;;9.20;99.90;;;;;;4986841;28;20038;-77
2021/11/21 11:56:15;;;;;;;27.90;15.07;;;9.10;99.90;;;;;;4974051;28;20018;-76
2021/11/21 11:59:11;;;;;;;25.25;16.20;;;9.00;99.90;;;;;;4971641;28;20021;-76
2021/11/21 12:01:39;;;;;;;25.58;15.57;;;9.00;99.90;;;;;;4976815;28;20046;-76
2021/11/21 12:04:12;;;;;;;28.77;17.23;;;8.90;99.90;;;;;;4987383;28;20522;-76
2021/11/21 12:06:42;;;;;;;28.77;18.05;;;8.90;99.90;;;;;;4988801;28;20105;-76
2021/11/21 12:09:22;;;;;;;27.13;15.55;;;8.80;99.90;;;;;;4989484;28;20026;-76
2021/11/21 12:11:55;;;;;;;28.63;18.27;;;8.70;99.90;;;;;;4988118;28;20082;-76
2021/11/21 12:14:37;;;;;;;;;;;8.70;99.90;;;;;;4990188;28;21071;-76
2021/11/21 12:17:10;;;;;;;27.73;17.45;;;8.70;99.90;;;;;;4990989;28;19921;-76
2021/11/21 12:19:41;;;;;;;24.83;14.98;;;8.70;99.90;;;;;;4984398;28;20023;-76
2021/11/21 12:22:29;;;;;;;27.35;15.45;;;8.70;99.90;;;;;;4989255;28;20040;-76
2021/11/21 12:25:06;;;;;;;27.63;15.75;;;8.60;99.90;;;;;;4981584;28;20182;-76
2021/11/21 12:27:36;;;;;;;26.02;15.00;;;8.60;99.90;;;;;;4989968;28;20487;-76
2021/11/21 12:30:13;;;;;;;25.00;15.75;;;8.50;99.90;;;;;;4989399;28;20027;-76
2021/11/21 12:32:55;;;;;;;23.92;15.02;;;8.50;99.90;;;;;;4965129;28;20464;-76
2021/11/21 12:35:24;;;;;;;28.02;15.82;;;8.40;99.90;;;;;;4977036;28;20038;-76
2021/11/21 12:37:51;;;;;;;24.35;16.20;;;8.30;99.90;;;;;;4990425;28;20069;-76
2021/11/21 12:40:22;;;;;;;27.27;17.00;;;8.30;99.90;;;;;;4990380;28;20026;-76
2021/11/21 12:43:18;;;;;;;25.38;15.68;;;8.30;99.90;;;;;;4991571;28;20054;-76